createdAt,value
2023-11-25T00:00:10.356Z,82.88
2023-11-25T00:01:10.442Z,83.50
2023-11-25T00:02:10.414Z,83.82
2023-11-25T00:03:10.329Z,86.69
2023-11-25T00:04:10.348Z,85.87
2023-11-25T00:05:10.323Z,83.32
2023-11-25T00:06:10.293Z,84.87
2023-11-25T00:07:10.313Z,84.35
2023-11-25T00:08:10.302Z,83.93
2023-11-25T00:09:10.245Z,85.55
2023-11-25T00:10:10.423Z,81.50
2023-11-25T00:11:18.031Z,84.12
2023-11-25T00:12:11.232Z,84.21
2023-11-25T00:13:10.324Z,81.37
2023-11-25T00:14:10.215Z,84.25
2023-11-25T00:15:10.215Z,83.34
2023-11-25T00:16:10.246Z,82.26
2023-11-25T00:17:10.212Z,84.06
2023-11-25T00:18:10.209Z,83.55
2023-11-25T00:19:10.204Z,80.54
2023-11-25T00:20:10.171Z,82.36
2023-11-25T00:21:10.157Z,81.93
2023-11-25T00:22:10.196Z,82.39
2023-11-25T00:23:10.131Z,81.42
2023-11-25T00:24:10.148Z,80.81
2023-11-25T00:25:10.161Z,82.53
2023-11-25T00:26:10.146Z,81.76
2023-11-25T00:27:10.098Z,78.99
2023-11-25T00:28:10.129Z,80.74
2023-11-25T00:29:10.084Z,81.52
2023-11-25T00:30:10.073Z,80.28
2023-11-25T00:31:10.132Z,80.87
2023-11-25T00:32:10.065Z,80.85
2023-11-25T00:33:10.161Z,81.26
2023-11-25T00:34:10.106Z,78.08
2023-11-25T00:35:10.137Z,81.14
2023-11-25T00:36:10.033Z,76.42
2023-11-25T00:37:10.048Z,81.72
2023-11-25T00:38:10.038Z,78.75
2023-11-25T00:39:10.002Z,80.51
2023-11-25T00:40:10.019Z,80.08
2023-11-25T00:41:09.987Z,78.08
2023-11-25T00:42:09.980Z,79.70
2023-11-25T00:43:10.006Z,77.90
2023-11-25T00:44:09.975Z,78.31
2023-11-25T00:45:10.006Z,76.76
2023-11-25T00:46:10.006Z,77.71
2023-11-25T00:47:09.991Z,77.56
2023-11-25T00:48:10.004Z,80.42
2023-11-25T00:49:10.024Z,76.60
2023-11-25T00:50:09.914Z,77.44
2023-11-25T00:51:09.923Z,78.79
2023-11-25T00:52:09.940Z,75.79
2023-11-25T00:53:09.874Z,77.11
2023-11-25T00:54:09.877Z,77.38
2023-11-25T00:55:10.000Z,77.31
2023-11-25T00:56:09.871Z,76.81
2023-11-25T00:57:09.837Z,75.82
2023-11-25T00:58:09.926Z,78.00
2023-11-25T00:59:18.322Z,74.50
2023-11-25T01:00:09.847Z,74.70
2023-11-25T01:01:09.863Z,75.25
2023-11-25T01:02:09.873Z,75.83
2023-11-25T01:03:09.907Z,77.89
2023-11-25T01:04:09.839Z,76.60
2023-11-25T01:05:09.815Z,78.01
2023-11-25T01:06:09.815Z,77.20
2023-11-25T01:07:09.846Z,74.43
2023-11-25T01:08:09.805Z,77.40
2023-11-25T01:09:09.778Z,75.55
2023-11-25T01:10:09.790Z,74.34
2023-11-25T01:11:09.756Z,74.90
2023-11-25T01:12:09.758Z,74.38
2023-11-25T01:13:09.748Z,73.01
2023-11-25T01:14:09.751Z,73.69
2023-11-25T01:15:09.724Z,75.51
2023-11-25T01:16:09.775Z,71.30
2023-11-25T01:17:09.754Z,75.31
2023-11-25T01:18:09.723Z,74.90
2023-11-25T01:19:09.723Z,73.69
2023-11-25T01:20:09.720Z,71.84
2023-11-25T01:21:09.664Z,73.83
2023-11-25T01:22:09.696Z,74.12
2023-11-25T01:23:09.676Z,71.52
2023-11-25T01:24:09.647Z,73.75
2023-11-25T01:25:09.681Z,72.56
2023-11-25T01:26:09.661Z,75.55
2023-11-25T01:27:09.618Z,71.91
2023-11-25T01:28:09.633Z,73.18
2023-11-25T01:29:09.604Z,73.98
2023-11-25T01:30:09.608Z,72.49
2023-11-25T01:31:09.606Z,73.13
2023-11-25T01:32:09.572Z,72.85
2023-11-25T01:33:10.328Z,72.46
2023-11-25T01:34:09.661Z,70.07
2023-11-25T01:35:09.566Z,71.50
2023-11-25T01:36:09.550Z,71.94
2023-11-25T01:37:09.574Z,72.12
2023-11-25T01:38:09.536Z,70.00
2023-11-25T01:39:09.507Z,70.94
2023-11-25T01:40:14.624Z,73.28
2023-11-25T01:41:09.511Z,72.28
2023-11-25T01:42:09.487Z,73.30
2023-11-25T01:43:09.497Z,73.37
2023-11-25T01:44:09.466Z,71.86
2023-11-25T01:45:09.472Z,73.27
2023-11-25T01:46:09.486Z,71.98
2023-11-25T01:47:09.538Z,70.01
2023-11-25T01:48:09.484Z,71.08
2023-11-25T01:49:12.946Z,70.94
2023-11-25T01:50:09.403Z,70.98
2023-11-25T01:51:09.418Z,70.69
2023-11-25T01:52:09.451Z,70.56
2023-11-25T01:53:09.404Z,69.25
2023-11-25T01:54:09.374Z,68.67
2023-11-25T01:55:09.393Z,71.62
2023-11-25T01:56:09.357Z,69.76
2023-11-25T01:57:09.356Z,71.74
2023-11-25T01:58:09.357Z,69.76
2023-11-25T01:59:09.325Z,70.26
2023-11-25T02:00:09.540Z,67.07
2023-11-25T02:01:09.329Z,68.67
2023-11-25T02:02:09.472Z,67.80
2023-11-25T02:03:09.380Z,69.02
2023-11-25T02:04:09.453Z,67.07
2023-11-25T02:05:09.476Z,69.58
2023-11-25T02:06:09.269Z,66.33
2023-11-25T02:07:09.276Z,67.65
2023-11-25T02:08:09.247Z,66.45
2023-11-25T02:09:09.229Z,68.85
2023-11-25T02:10:09.262Z,67.91
2023-11-25T02:11:09.213Z,64.88
2023-11-25T02:12:09.212Z,68.40
2023-11-25T02:13:09.255Z,66.09
2023-11-25T02:14:09.243Z,66.06
2023-11-25T02:15:09.188Z,66.15
2023-11-25T02:16:09.244Z,66.27
2023-11-25T02:17:09.227Z,65.24
2023-11-25T02:18:09.195Z,67.16
2023-11-25T02:19:09.172Z,67.85
2023-11-25T02:20:09.208Z,68.06
2023-11-25T02:21:09.132Z,64.49
2023-11-25T02:22:09.177Z,67.37
2023-11-25T02:23:09.114Z,66.41
2023-11-25T02:24:09.122Z,67.13
2023-11-25T02:25:09.148Z,65.88
2023-11-25T02:26:09.103Z,64.46
2023-11-25T02:27:09.074Z,64.73
2023-11-25T02:28:09.095Z,66.00
2023-11-25T02:29:09.059Z,64.26
2023-11-25T02:30:09.057Z,67.26
2023-11-25T02:31:09.317Z,65.48
2023-11-25T02:32:09.094Z,64.89
2023-11-25T02:33:09.068Z,65.64
2023-11-25T02:34:09.044Z,64.46
2023-11-25T02:35:09.011Z,66.00
2023-11-25T02:36:09.000Z,65.56
2023-11-25T02:37:09.021Z,65.07
2023-11-25T02:38:08.978Z,66.26
2023-11-25T02:39:08.978Z,64.58
2023-11-25T02:40:08.990Z,63.23
2023-11-25T02:41:08.964Z,65.79
2023-11-25T02:42:08.950Z,63.57
2023-11-25T02:43:08.989Z,63.97
2023-11-25T02:44:08.932Z,64.30
2023-11-25T02:45:08.925Z,63.05
2023-11-25T02:46:08.954Z,63.93
2023-11-25T02:47:08.960Z,64.06
2023-11-25T02:48:08.983Z,64.68
2023-11-25T02:49:08.894Z,62.16
2023-11-25T02:50:08.897Z,63.41
2023-11-25T02:51:08.857Z,64.26
2023-11-25T02:52:08.913Z,62.36
2023-11-25T02:53:08.836Z,64.54
2023-11-25T02:54:08.844Z,64.06
2023-11-25T02:55:08.823Z,62.95
2023-11-25T02:56:08.822Z,59.19
2023-11-25T02:57:08.803Z,61.41
2023-11-25T02:58:08.836Z,63.54
2023-11-25T02:59:08.800Z,63.14
2023-11-25T03:00:08.799Z,61.70
2023-11-25T03:01:08.906Z,63.75
2023-11-25T03:02:08.841Z,61.89
2023-11-25T03:03:09.683Z,60.29
2023-11-25T03:04:08.819Z,63.56
2023-11-25T03:05:08.735Z,61.51
2023-11-25T03:06:08.724Z,61.87
2023-11-25T03:07:08.758Z,59.84
2023-11-25T03:08:08.722Z,61.12
2023-11-25T03:09:08.703Z,63.18
2023-11-25T03:10:08.756Z,63.47
2023-11-25T03:11:08.702Z,61.32
2023-11-25T03:12:08.700Z,61.05
2023-11-25T03:13:08.698Z,62.41
2023-11-25T03:14:08.733Z,60.09
2023-11-25T03:15:08.666Z,59.91
2023-11-25T03:16:08.732Z,60.43
2023-11-25T03:17:08.685Z,59.23
2023-11-25T03:18:08.684Z,61.90
2023-11-25T03:19:08.664Z,60.21
2023-11-25T03:20:08.603Z,62.77
2023-11-25T03:21:08.615Z,61.41
2023-11-25T03:22:08.621Z,59.85
2023-11-25T03:23:08.594Z,61.32
2023-11-25T03:24:08.586Z,59.36
2023-11-25T03:25:08.639Z,60.43
2023-11-25T03:26:08.550Z,60.65
2023-11-25T03:27:08.552Z,60.03
2023-11-25T03:28:08.574Z,61.60
2023-11-25T03:29:08.533Z,60.43
2023-11-25T03:30:08.557Z,61.17
2023-11-25T03:31:08.555Z,60.06
2023-11-25T03:32:08.569Z,59.46
2023-11-25T03:33:08.513Z,61.00
2023-11-25T03:34:08.539Z,59.81
2023-11-25T03:35:08.493Z,59.50
2023-11-25T03:36:08.497Z,59.67
2023-11-25T03:37:08.486Z,57.97
2023-11-25T03:38:08.472Z,59.06
2023-11-25T03:39:08.448Z,59.31
2023-11-25T03:40:08.493Z,59.06
2023-11-25T03:41:08.434Z,60.90
2023-11-25T03:42:08.447Z,58.98
2023-11-25T03:43:08.449Z,58.74
2023-11-25T03:44:08.398Z,58.98
2023-11-25T03:45:08.396Z,60.52
2023-11-25T03:46:08.451Z,57.53
2023-11-25T03:47:08.398Z,58.93
2023-11-25T03:48:08.393Z,58.15
2023-11-25T03:49:08.408Z,55.81
2023-11-25T03:50:08.351Z,56.68
2023-11-25T03:51:08.335Z,56.90
2023-11-25T03:52:08.353Z,56.61
2023-11-25T03:53:08.328Z,58.56
2023-11-25T03:54:08.308Z,57.11
2023-11-25T03:55:08.336Z,56.16
2023-11-25T03:56:08.462Z,56.65
2023-11-25T03:57:08.277Z,57.33
2023-11-25T03:58:08.326Z,57.77
2023-11-25T03:59:08.298Z,56.48
2023-11-25T04:00:08.264Z,58.40
2023-11-25T04:01:08.321Z,57.70
2023-11-25T04:02:08.382Z,56.62
2023-11-25T04:03:08.342Z,56.75
2023-11-25T04:04:08.336Z,58.27
2023-11-25T04:05:08.245Z,55.71
2023-11-25T04:06:08.216Z,55.78
2023-11-25T04:07:08.233Z,54.93
2023-11-25T04:08:08.195Z,56.10
2023-11-25T04:09:08.184Z,56.66
2023-11-25T04:10:08.207Z,52.63
2023-11-25T04:11:09.225Z,56.69
2023-11-25T04:12:08.165Z,54.22
2023-11-25T04:13:08.177Z,54.13
2023-11-25T04:14:08.138Z,53.21
2023-11-25T04:15:08.136Z,55.43
2023-11-25T04:16:08.124Z,55.06
2023-11-25T04:17:09.614Z,51.81
2023-11-25T04:18:08.149Z,55.50
2023-11-25T04:19:08.238Z,57.47
2023-11-25T04:20:08.088Z,55.79
2023-11-25T04:21:08.139Z,55.85
2023-11-25T04:22:08.098Z,54.94
2023-11-25T04:23:08.673Z,58.15
2023-11-25T04:24:08.056Z,55.96
2023-11-25T04:25:08.062Z,55.11
2023-11-25T04:26:08.099Z,54.34
2023-11-25T04:27:08.049Z,53.48
2023-11-25T04:28:08.558Z,53.13
2023-11-25T04:29:08.039Z,54.69
2023-11-25T04:30:08.103Z,54.05
2023-11-25T04:31:08.051Z,52.36
2023-11-25T04:32:08.143Z,54.54
2023-11-25T04:33:08.100Z,55.79
2023-11-25T04:34:08.071Z,52.37
2023-11-25T04:35:07.980Z,53.89
2023-11-25T04:36:08.114Z,53.11
2023-11-25T04:37:07.938Z,50.98
2023-11-25T04:38:07.969Z,54.32
2023-11-25T04:39:07.947Z,52.61
2023-11-25T04:40:07.939Z,52.75
2023-11-25T04:41:07.952Z,54.35
2023-11-25T04:42:07.900Z,51.60
2023-11-25T04:43:07.884Z,53.62
2023-11-25T04:44:07.900Z,53.33
2023-11-25T04:45:07.927Z,53.41
2023-11-25T04:46:07.860Z,52.72
2023-11-25T04:47:07.957Z,52.13
2023-11-25T04:48:07.882Z,51.54
2023-11-25T04:49:08.057Z,54.83
2023-11-25T04:50:07.827Z,52.57
2023-11-25T04:51:07.832Z,53.43
2023-11-25T04:52:07.798Z,52.33
2023-11-25T04:53:07.804Z,53.11
2023-11-25T04:54:07.784Z,54.02
2023-11-25T04:55:07.803Z,52.88
2023-11-25T04:56:07.760Z,53.15
2023-11-25T04:57:07.778Z,53.34
2023-11-25T04:58:07.737Z,52.61
2023-11-25T04:59:07.753Z,53.07
2023-11-25T05:00:07.723Z,53.18
2023-11-25T05:01:07.745Z,52.88
2023-11-25T05:02:07.829Z,55.17
2023-11-25T05:03:07.726Z,53.39
2023-11-25T05:04:07.710Z,52.23
2023-11-25T05:05:07.721Z,53.71
2023-11-25T05:06:07.666Z,57.69
2023-11-25T05:07:10.953Z,55.68
2023-11-25T05:08:07.686Z,55.40
2023-11-25T05:09:07.666Z,54.09
2023-11-25T05:10:07.702Z,55.93
2023-11-25T05:11:07.633Z,52.37
2023-11-25T05:12:07.629Z,51.83
2023-11-25T05:13:07.611Z,52.14
2023-11-25T05:14:07.607Z,53.62
2023-11-25T05:15:07.618Z,51.71
2023-11-25T05:16:07.582Z,54.08
2023-11-25T05:17:12.704Z,53.90
2023-11-25T05:18:07.597Z,54.00
2023-11-25T05:19:07.583Z,54.40
2023-11-25T05:20:07.550Z,54.13
2023-11-25T05:21:07.549Z,54.36
2023-11-25T05:22:07.522Z,53.31
2023-11-25T05:23:08.105Z,53.96
2023-11-25T05:24:07.506Z,53.01
2023-11-25T05:25:07.505Z,54.31
2023-11-25T05:26:07.525Z,53.82
2023-11-25T05:27:07.486Z,54.00
2023-11-25T05:28:07.493Z,52.87
2023-11-25T05:29:07.473Z,53.55
2023-11-25T05:30:07.466Z,53.37
2023-11-25T05:31:07.527Z,50.89
2023-11-25T05:32:07.596Z,54.46
2023-11-25T05:33:07.458Z,51.06
2023-11-25T05:34:07.433Z,52.42
2023-11-25T05:35:07.421Z,52.54
2023-11-25T05:36:07.408Z,52.25
2023-11-25T05:37:07.401Z,51.93
2023-11-25T05:38:07.389Z,52.64
2023-11-25T05:39:07.409Z,52.13
2023-11-25T05:40:07.453Z,53.69
2023-11-25T05:41:07.379Z,52.20
2023-11-25T05:42:07.355Z,53.65
2023-11-25T05:43:10.611Z,51.59
2023-11-25T05:44:07.331Z,52.32
2023-11-25T05:45:07.409Z,51.87
2023-11-25T05:46:07.330Z,52.19
2023-11-25T05:47:07.355Z,53.19
2023-11-25T05:48:07.312Z,51.42
2023-11-25T05:49:07.306Z,52.61
2023-11-25T05:50:07.299Z,51.75
2023-11-25T05:51:07.279Z,53.42
2023-11-25T05:52:07.261Z,51.62
2023-11-25T05:53:07.257Z,51.86
2023-11-25T05:54:07.282Z,50.55
2023-11-25T05:55:07.236Z,51.87
2023-11-25T05:56:07.235Z,52.01
2023-11-25T05:57:07.241Z,52.20
2023-11-25T05:58:07.209Z,52.69
2023-11-25T05:59:07.229Z,51.90
2023-11-25T06:00:07.200Z,53.94
2023-11-25T06:01:07.190Z,52.84
2023-11-25T06:02:07.180Z,51.56
2023-11-25T06:03:07.179Z,51.88
2023-11-25T06:04:07.254Z,51.09
2023-11-25T06:05:07.212Z,51.52
2023-11-25T06:06:07.139Z,51.21
2023-11-25T06:07:07.187Z,52.07
2023-11-25T06:08:07.121Z,51.67
2023-11-25T06:09:07.118Z,52.35
2023-11-25T06:10:07.103Z,51.16
2023-11-25T06:11:07.097Z,52.74
2023-11-25T06:12:07.098Z,51.70
2023-11-25T06:13:07.088Z,51.52
2023-11-25T06:14:07.091Z,52.27
2023-11-25T06:15:07.110Z,54.36
2023-11-25T06:16:07.074Z,52.71
2023-11-25T06:17:07.069Z,53.28
2023-11-25T06:18:07.137Z,53.15
2023-11-25T06:19:07.026Z,53.08
2023-11-25T06:20:07.042Z,53.74
2023-11-25T06:21:07.012Z,53.48
2023-11-25T06:22:07.000Z,51.67
2023-11-25T06:23:07.022Z,51.81
2023-11-25T06:24:07.003Z,51.13
2023-11-25T06:25:06.982Z,53.12
2023-11-25T06:26:06.969Z,53.97
2023-11-25T06:27:06.980Z,52.65
2023-11-25T06:28:06.954Z,53.11
2023-11-25T06:29:06.959Z,52.44
2023-11-25T06:30:06.981Z,53.18
2023-11-25T06:31:06.948Z,53.04
2023-11-25T06:32:06.911Z,51.22
2023-11-25T06:33:06.948Z,53.22
2023-11-25T06:34:06.945Z,50.47
2023-11-25T06:35:06.893Z,51.81
2023-11-25T06:36:06.894Z,52.77
2023-11-25T06:37:06.883Z,53.49
2023-11-25T06:38:06.941Z,52.27
2023-11-25T06:39:06.892Z,53.02
2023-11-25T06:40:06.846Z,51.72
2023-11-25T06:41:06.836Z,52.83
2023-11-25T06:42:06.822Z,53.41
2023-11-25T06:43:06.824Z,51.37
2023-11-25T06:44:06.873Z,54.19
2023-11-25T06:45:06.822Z,53.35
2023-11-25T06:46:06.809Z,51.45
2023-11-25T06:47:06.919Z,51.52
2023-11-25T06:48:06.817Z,51.13
2023-11-25T06:49:06.771Z,52.12
2023-11-25T06:50:06.799Z,52.64
2023-11-25T06:51:06.776Z,54.17
2023-11-25T06:52:06.762Z,52.74
2023-11-25T06:53:06.749Z,51.97
2023-11-25T06:54:06.746Z,51.22
2023-11-25T06:55:06.730Z,51.28
2023-11-25T06:56:06.727Z,51.93
2023-11-25T06:57:06.709Z,52.18
2023-11-25T06:58:06.700Z,51.87
2023-11-25T06:59:06.688Z,51.53
2023-11-25T07:00:06.703Z,50.46
2023-11-25T07:01:06.711Z,53.69
2023-11-25T07:02:06.733Z,52.49
2023-11-25T07:03:06.670Z,52.72
2023-11-25T07:04:06.638Z,52.95
2023-11-25T07:05:06.664Z,52.15
2023-11-25T07:06:06.636Z,52.50
2023-11-25T07:07:06.610Z,53.48
2023-11-25T07:08:06.664Z,52.55
2023-11-25T07:09:06.604Z,52.01
2023-11-25T07:10:06.595Z,52.31
2023-11-25T07:11:06.580Z,53.05
2023-11-25T07:12:06.583Z,52.29
2023-11-25T07:13:06.573Z,50.96
2023-11-25T07:14:06.601Z,52.34
2023-11-25T07:15:06.578Z,50.28
2023-11-25T07:16:06.546Z,51.40
2023-11-25T07:17:07.616Z,50.97
2023-11-25T07:18:06.526Z,54.44
2023-11-25T07:19:06.524Z,52.91
2023-11-25T07:20:06.494Z,54.49
2023-11-25T07:21:06.505Z,51.43
2023-11-25T07:22:06.481Z,53.53
2023-11-25T07:23:06.482Z,52.70
2023-11-25T07:24:06.476Z,52.76
2023-11-25T07:25:06.499Z,53.02
2023-11-25T07:26:06.477Z,54.34
2023-11-25T07:27:06.565Z,52.69
2023-11-25T07:28:06.444Z,54.38
2023-11-25T07:29:06.427Z,52.93
2023-11-25T07:30:06.427Z,51.24
2023-11-25T07:31:06.539Z,51.62
2023-11-25T07:32:06.430Z,52.79
2023-11-25T07:33:06.434Z,51.85
2023-11-25T07:34:06.388Z,53.47
2023-11-25T07:35:06.391Z,50.95
2023-11-25T07:36:16.407Z,52.76
2023-11-25T07:37:06.364Z,52.99
2023-11-25T07:38:06.356Z,53.25
2023-11-25T07:39:06.380Z,53.16
2023-11-25T07:40:06.334Z,53.33
2023-11-25T07:41:06.327Z,53.87
2023-11-25T07:42:06.333Z,53.59
2023-11-25T07:43:06.360Z,51.91
2023-11-25T07:44:06.296Z,51.19
2023-11-25T07:45:06.287Z,53.06
2023-11-25T07:46:06.288Z,50.84
2023-11-25T07:47:06.379Z,53.89
2023-11-25T07:48:06.312Z,54.20
2023-11-25T07:49:06.277Z,51.45
2023-11-25T07:50:06.273Z,52.85
2023-11-25T07:51:06.236Z,51.84
2023-11-25T07:52:06.248Z,51.45
2023-11-25T07:53:06.239Z,53.13
2023-11-25T07:54:06.219Z,50.97
2023-11-25T07:55:06.210Z,51.93
2023-11-25T07:56:06.211Z,52.14
2023-11-25T07:57:06.196Z,55.34
2023-11-25T07:58:06.188Z,51.72
2023-11-25T07:59:06.193Z,52.21
2023-11-25T08:00:06.165Z,50.48
2023-11-25T08:01:06.157Z,52.82
2023-11-25T08:02:14.383Z,52.98
2023-11-25T08:03:06.294Z,53.19
2023-11-25T08:04:06.174Z,53.48
2023-11-25T08:05:06.219Z,53.68
2023-11-25T08:06:06.109Z,53.83
2023-11-25T08:07:06.145Z,54.36
2023-11-25T08:08:06.112Z,52.53
2023-11-25T08:09:06.111Z,53.30
2023-11-25T08:10:06.077Z,52.60
2023-11-25T08:11:06.075Z,53.45
2023-11-25T08:12:06.075Z,55.49
2023-11-25T08:13:06.069Z,52.85
2023-11-25T08:14:06.050Z,51.73
2023-11-25T08:15:06.051Z,51.14
2023-11-25T08:16:06.079Z,52.46
2023-11-25T08:17:06.084Z,53.73
2023-11-25T08:18:06.067Z,53.67
2023-11-25T08:19:06.022Z,52.24
2023-11-25T08:20:06.005Z,52.77
2023-11-25T08:21:05.983Z,51.95
2023-11-25T08:22:05.976Z,51.97
2023-11-25T08:23:05.991Z,51.09
2023-11-25T08:24:05.954Z,53.20
2023-11-25T08:25:05.965Z,53.80
2023-11-25T08:26:05.973Z,51.56
2023-11-25T08:27:05.944Z,50.65
2023-11-25T08:28:05.933Z,52.26
2023-11-25T08:29:05.921Z,50.00
2023-11-25T08:30:05.910Z,50.00
2023-11-25T08:31:05.959Z,52.48
2023-11-25T08:32:06.020Z,51.31
2023-11-25T08:33:05.946Z,53.43
2023-11-25T08:34:05.884Z,52.79
2023-11-25T08:35:05.861Z,51.80
2023-11-25T08:36:05.870Z,52.02
2023-11-25T08:37:05.856Z,52.25
2023-11-25T08:38:15.933Z,52.64
2023-11-25T08:39:05.838Z,52.87
2023-11-25T08:40:05.831Z,53.06
2023-11-25T08:41:05.830Z,53.57
2023-11-25T08:42:05.806Z,53.26
2023-11-25T08:43:05.808Z,53.50
2023-11-25T08:44:05.811Z,52.52
2023-11-25T08:45:05.774Z,52.72
2023-11-25T08:46:05.868Z,52.10
2023-11-25T08:47:05.780Z,51.88
2023-11-25T08:48:05.840Z,52.31
2023-11-25T08:49:05.746Z,51.17
2023-11-25T08:50:05.759Z,51.08
2023-11-25T08:51:08.146Z,53.07
2023-11-25T08:52:05.737Z,53.14
2023-11-25T08:53:05.713Z,53.34
2023-11-25T08:54:05.712Z,53.25
2023-11-25T08:55:05.687Z,53.94
2023-11-25T08:56:05.695Z,52.34
2023-11-25T08:57:05.695Z,52.37
2023-11-25T08:58:05.677Z,52.29
2023-11-25T08:59:07.100Z,51.03
2023-11-25T09:00:05.665Z,51.08
2023-11-25T09:01:05.644Z,51.37
2023-11-25T09:02:05.817Z,51.61
2023-11-25T09:03:05.690Z,52.04
2023-11-25T09:04:05.663Z,52.51
2023-11-25T09:05:09.626Z,52.63
2023-11-25T09:06:06.612Z,52.71
2023-11-25T09:07:06.483Z,52.98
2023-11-25T09:08:05.722Z,53.17
2023-11-25T09:09:05.574Z,53.73
2023-11-25T09:10:05.576Z,53.93
2023-11-25T09:11:05.611Z,53.29
2023-11-25T09:12:05.619Z,51.43
2023-11-25T09:13:05.587Z,51.33
2023-11-25T09:14:05.826Z,50.00
2023-11-25T09:15:05.578Z,55.01
2023-11-25T09:16:05.600Z,51.64
2023-11-25T09:17:05.612Z,52.82
2023-11-25T09:18:05.551Z,52.33
2023-11-25T09:19:05.574Z,52.68
2023-11-25T09:20:05.494Z,51.48
2023-11-25T09:21:05.477Z,53.29
2023-11-25T09:22:05.459Z,51.29
2023-11-25T09:23:05.485Z,52.88
2023-11-25T09:24:05.438Z,50.17
2023-11-25T09:25:05.442Z,52.57
2023-11-25T09:26:05.458Z,55.29
2023-11-25T09:27:05.420Z,53.66
2023-11-25T09:28:05.427Z,54.49
2023-11-25T09:29:05.413Z,52.67
2023-11-25T09:30:05.409Z,52.87
2023-11-25T09:31:05.380Z,52.78
2023-11-25T09:32:05.389Z,52.96
2023-11-25T09:33:05.392Z,52.80
2023-11-25T09:34:05.462Z,53.24
2023-11-25T09:35:05.398Z,51.73
2023-11-25T09:36:05.341Z,52.64
2023-11-25T09:37:05.343Z,52.50
2023-11-25T09:38:05.317Z,53.47
2023-11-25T09:39:05.315Z,52.33
2023-11-25T09:40:05.307Z,51.13
2023-11-25T09:41:05.283Z,53.71
2023-11-25T09:42:05.289Z,53.24
2023-11-25T09:43:05.281Z,53.10
2023-11-25T09:44:05.269Z,51.53
2023-11-25T09:45:05.262Z,50.75
2023-11-25T09:46:05.307Z,52.70
2023-11-25T09:47:05.249Z,53.99
2023-11-25T09:48:05.308Z,55.98
2023-11-25T09:49:05.230Z,52.73
2023-11-25T09:50:05.225Z,51.98
2023-11-25T09:51:05.210Z,54.39
2023-11-25T09:52:05.205Z,56.00
2023-11-25T09:53:05.193Z,54.14
2023-11-25T09:54:05.208Z,50.87
2023-11-25T09:55:05.161Z,53.93
2023-11-25T09:56:05.358Z,52.26
2023-11-25T09:57:05.186Z,51.63
2023-11-25T09:58:05.154Z,54.75
2023-11-25T09:59:05.149Z,53.27
2023-11-25T10:00:05.152Z,52.57
2023-11-25T10:01:05.123Z,52.35
2023-11-25T10:02:05.209Z,50.59
2023-11-25T10:03:16.882Z,51.29
2023-11-25T10:04:05.200Z,51.49
2023-11-25T10:05:05.088Z,52.07
2023-11-25T10:06:05.109Z,52.89
2023-11-25T10:07:05.067Z,53.25
2023-11-25T10:08:05.069Z,53.26
2023-11-25T10:09:05.064Z,54.66
2023-11-25T10:10:05.069Z,56.94
2023-11-25T10:11:05.042Z,53.70
2023-11-25T10:12:05.030Z,53.09
2023-11-25T10:13:05.575Z,53.15
2023-11-25T10:14:05.034Z,52.67
2023-11-25T10:15:04.999Z,52.62
2023-11-25T10:16:05.040Z,52.51
2023-11-25T10:17:05.036Z,52.62
2023-11-25T10:18:05.023Z,52.59
2023-11-25T10:19:04.972Z,52.66
2023-11-25T10:20:04.970Z,52.26
2023-11-25T10:21:05.023Z,52.27
2023-11-25T10:22:04.940Z,52.12
2023-11-25T10:23:04.935Z,53.70
2023-11-25T10:24:09.957Z,52.95
2023-11-25T10:25:04.922Z,53.12
2023-11-25T10:26:05.262Z,52.77
2023-11-25T10:27:04.885Z,53.10
2023-11-25T10:28:04.897Z,51.94
2023-11-25T10:29:04.898Z,53.51
2023-11-25T10:30:04.924Z,56.02
2023-11-25T10:31:04.884Z,52.88
2023-11-25T10:32:04.861Z,54.04
2023-11-25T10:33:04.913Z,52.36
2023-11-25T10:34:04.925Z,53.20
2023-11-25T10:35:04.842Z,54.95
2023-11-25T10:36:04.836Z,52.88
2023-11-25T10:37:04.826Z,53.88
2023-11-25T10:38:04.904Z,50.65
2023-11-25T10:39:04.799Z,52.52
2023-11-25T10:40:04.789Z,53.03
2023-11-25T10:41:04.815Z,51.58
2023-11-25T10:42:04.767Z,52.11
2023-11-25T10:43:04.763Z,52.44
2023-11-25T10:44:04.814Z,53.78
2023-11-25T10:45:04.740Z,51.43
2023-11-25T10:46:04.807Z,52.32
2023-11-25T10:47:04.728Z,52.69
2023-11-25T10:48:04.790Z,53.39
2023-11-25T10:49:04.706Z,53.44
2023-11-25T10:50:04.767Z,54.09
2023-11-25T10:51:04.757Z,53.91
2023-11-25T10:52:04.689Z,52.51
2023-11-25T10:53:04.714Z,53.39
2023-11-25T10:54:04.702Z,52.51
2023-11-25T10:55:04.672Z,52.95
2023-11-25T10:56:04.736Z,51.56
2023-11-25T10:57:04.667Z,53.87
2023-11-25T10:58:04.660Z,52.90
2023-11-25T10:59:04.635Z,52.35
2023-11-25T11:00:04.634Z,52.23
2023-11-25T11:01:04.640Z,52.01
2023-11-25T11:02:04.693Z,50.23
2023-11-25T11:03:14.763Z,50.99
2023-11-25T11:04:04.598Z,51.26
2023-11-25T11:05:04.598Z,51.51
2023-11-25T11:06:04.575Z,52.15
2023-11-25T11:07:05.682Z,53.01
2023-11-25T11:08:04.562Z,52.70
2023-11-25T11:09:04.627Z,53.25
2023-11-25T11:10:04.539Z,52.39
2023-11-25T11:11:04.529Z,53.75
2023-11-25T11:12:04.516Z,50.40
2023-11-25T11:13:04.522Z,52.48
2023-11-25T11:14:04.515Z,52.52
2023-11-25T11:15:04.498Z,51.85
2023-11-25T11:16:04.494Z,53.46
2023-11-25T11:17:04.473Z,50.93
2023-11-25T11:18:04.600Z,50.50
2023-11-25T11:19:12.418Z,51.42
2023-11-25T11:20:04.486Z,51.57
2023-11-25T11:21:04.433Z,51.91
2023-11-25T11:22:04.443Z,51.78
2023-11-25T11:23:04.436Z,51.92
2023-11-25T11:24:04.417Z,51.58
2023-11-25T11:25:04.403Z,51.73
2023-11-25T11:26:04.399Z,51.91
2023-11-25T11:27:04.402Z,50.99
2023-11-25T11:28:04.385Z,51.79
2023-11-25T11:29:04.398Z,52.28
2023-11-25T11:30:04.381Z,54.73
2023-11-25T11:31:04.386Z,54.03
2023-11-25T11:32:04.511Z,52.58
2023-11-25T11:33:04.342Z,51.62
2023-11-25T11:34:04.334Z,53.60
2023-11-25T11:35:04.363Z,52.69
2023-11-25T11:36:04.307Z,54.11
2023-11-25T11:37:04.335Z,54.80
2023-11-25T11:38:04.323Z,52.53
2023-11-25T11:39:04.279Z,54.51
2023-11-25T11:40:04.280Z,53.37
2023-11-25T11:41:04.321Z,54.09
2023-11-25T11:42:04.270Z,53.90
2023-11-25T11:43:04.237Z,54.74
2023-11-25T11:44:04.457Z,52.86
2023-11-25T11:45:04.232Z,52.46
2023-11-25T11:46:04.250Z,52.75
2023-11-25T11:47:04.309Z,53.53
2023-11-25T11:48:04.525Z,55.14
2023-11-25T11:49:04.199Z,54.87
2023-11-25T11:50:04.216Z,52.37
2023-11-25T11:51:04.185Z,52.81
2023-11-25T11:52:04.184Z,55.60
2023-11-25T11:53:04.198Z,53.27
2023-11-25T11:54:04.176Z,55.43
2023-11-25T11:55:04.139Z,53.55
2023-11-25T11:56:04.206Z,52.79
2023-11-25T11:57:04.150Z,53.14
2023-11-25T11:58:04.131Z,52.52
2023-11-25T11:59:04.144Z,53.56
2023-11-25T12:00:04.127Z,52.98
2023-11-25T12:01:04.119Z,54.01
2023-11-25T12:02:06.140Z,51.94
2023-11-25T12:03:04.087Z,52.91
2023-11-25T12:04:04.162Z,52.39
2023-11-25T12:05:04.304Z,54.61
2023-11-25T12:06:04.075Z,53.13
2023-11-25T12:07:04.029Z,55.28
2023-11-25T12:08:04.033Z,54.08
2023-11-25T12:09:04.017Z,54.89
2023-11-25T12:10:04.002Z,53.21
2023-11-25T12:11:04.010Z,53.13
2023-11-25T12:12:03.994Z,53.27
2023-11-25T12:13:03.982Z,55.58
2023-11-25T12:14:04.046Z,54.82
2023-11-25T12:15:03.965Z,54.44
2023-11-25T12:16:03.955Z,54.09
2023-11-25T12:17:03.984Z,53.14
2023-11-25T12:18:14.039Z,52.47
2023-11-25T12:19:03.918Z,52.74
2023-11-25T12:20:04.009Z,53.37
2023-11-25T12:21:03.929Z,54.44
2023-11-25T12:22:03.894Z,55.73
2023-11-25T12:23:03.885Z,55.50
2023-11-25T12:24:03.894Z,58.83
2023-11-25T12:25:03.886Z,57.88
2023-11-25T12:26:03.870Z,55.85
2023-11-25T12:27:03.880Z,57.01
2023-11-25T12:28:03.862Z,56.23
2023-11-25T12:29:03.877Z,55.89
2023-11-25T12:30:03.826Z,58.07
2023-11-25T12:31:03.826Z,59.19
2023-11-25T12:32:03.900Z,55.54
2023-11-25T12:33:03.810Z,59.81
2023-11-25T12:34:03.796Z,56.48
2023-11-25T12:35:03.838Z,58.63
2023-11-25T12:36:03.791Z,56.35
2023-11-25T12:37:03.837Z,59.16
2023-11-25T12:38:11.965Z,57.76
2023-11-25T12:39:04.745Z,57.78
2023-11-25T12:40:03.748Z,58.02
2023-11-25T12:41:03.785Z,58.09
2023-11-25T12:42:03.760Z,55.74
2023-11-25T12:43:03.712Z,58.47
2023-11-25T12:44:03.793Z,59.65
2023-11-25T12:45:03.716Z,58.33
2023-11-25T12:46:03.714Z,60.37
2023-11-25T12:47:03.810Z,58.07
2023-11-25T12:48:03.719Z,57.96
2023-11-25T12:49:09.163Z,56.56
2023-11-25T12:50:04.706Z,56.79
2023-11-25T12:51:03.653Z,56.97
2023-11-25T12:52:03.647Z,58.57